createdAt,value
2022-08-19T00:02:03.006Z,2.42
2022-08-19T00:05:05.333Z,2.45
2022-08-19T00:08:07.586Z,2.53
2022-08-19T00:11:09.906Z,2.30
2022-08-19T00:14:21.705Z,2.80
2022-08-19T00:17:23.531Z,2.10
2022-08-19T00:20:25.609Z,2.20
2022-08-19T00:23:28.219Z,2.13
2022-08-19T00:26:30.006Z,2.13
2022-08-19T00:29:32.079Z,2.40
2022-08-19T00:32:35.279Z,2.40
2022-08-19T00:35:41.978Z,2.30
2022-08-19T00:38:44.226Z,2.72
2022-08-19T00:41:51.058Z,2.30
2022-08-19T00:44:53.005Z,2.53
2022-08-19T00:47:54.833Z,2.60
2022-08-19T00:50:57.657Z,2.58
2022-08-19T00:54:01.701Z,2.28
2022-08-19T00:57:07.241Z,2.33
2022-08-19T01:00:13.259Z,2.65
2022-08-19T01:03:19.145Z,2.53
2022-08-19T01:06:22.276Z,2.45
2022-08-19T01:09:24.179Z,2.70
2022-08-19T01:12:25.990Z,2.40
2022-08-19T01:15:33.343Z,2.40
2022-08-19T01:18:40.112Z,2.58
2022-08-19T01:21:50.994Z,2.47
2022-08-19T01:24:53.062Z,2.30
2022-08-19T01:28:03.036Z,2.42
2022-08-19T01:31:27.019Z,2.20
2022-08-19T01:34:29.526Z,2.03
2022-08-19T01:37:42.143Z,2.17
2022-08-19T01:40:43.932Z,2.40
2022-08-19T01:44:13.585Z,2.90
2022-08-19T01:47:08.335Z,2.20
2022-08-19T01:50:12.591Z,2.55
2022-08-19T01:53:14.402Z,2.55
2022-08-19T01:56:18.047Z,2.40
2022-08-19T01:59:23.048Z,2.38
2022-08-19T02:02:25.035Z,2.60
2022-08-19T02:05:26.822Z,2.00
2022-08-19T02:08:29.429Z,2.40
2022-08-19T02:11:34.393Z,2.30
2022-08-19T02:14:37.649Z,2.88
2022-08-19T02:17:40.262Z,2.67
2022-08-19T02:20:44.045Z,2.40
2022-08-19T02:23:46.414Z,2.42
2022-08-19T02:26:48.200Z,2.35
2022-08-19T02:29:51.246Z,2.70
2022-08-19T02:32:53.661Z,2.47
2022-08-19T02:35:55.758Z,2.42
2022-08-19T02:38:57.653Z,2.97
2022-08-19T02:42:00.499Z,2.65
2022-08-19T02:45:02.276Z,2.63
2022-08-19T02:48:05.755Z,2.30
2022-08-19T02:51:22.991Z,2.80
2022-08-19T02:54:24.769Z,2.60
2022-08-19T02:57:26.989Z,2.60
2022-08-19T03:00:28.916Z,2.50
2022-08-19T03:03:30.774Z,2.70
2022-08-19T03:06:33.183Z,3.05
2022-08-19T03:09:38.305Z,2.67
2022-08-19T03:12:40.290Z,2.35
2022-08-19T03:15:47.443Z,2.50
2022-08-19T03:18:50.002Z,3.00
2022-08-19T03:21:53.174Z,2.45
2022-08-19T03:24:54.960Z,2.90
2022-08-19T03:27:56.750Z,2.65
2022-08-19T03:31:05.748Z,2.38
2022-08-19T03:34:30.392Z,2.10
2022-08-19T03:37:32.210Z,2.67
2022-08-19T03:40:37.604Z,2.65
2022-08-19T03:43:41.030Z,2.72
2022-08-19T03:46:42.816Z,2.42
2022-08-19T03:49:46.658Z,2.58
2022-08-19T03:52:52.951Z,2.65
2022-08-19T03:55:56.005Z,2.55
2022-08-19T03:59:00.545Z,2.70
2022-08-19T04:02:06.702Z,2.40
2022-08-19T04:05:09.193Z,2.92
2022-08-19T04:08:13.938Z,2.80
2022-08-19T04:11:19.316Z,3.05
2022-08-19T04:14:24.992Z,2.80
2022-08-19T04:17:26.822Z,2.78
2022-08-19T04:20:28.734Z,2.60
2022-08-19T04:23:31.044Z,2.60
2022-08-19T04:26:35.530Z,2.63
2022-08-19T04:29:40.308Z,2.55
2022-08-19T04:32:44.584Z,2.67
2022-08-19T04:35:49.243Z,2.53
2022-08-19T04:38:55.516Z,2.75
2022-08-19T04:42:15.867Z,2.78
2022-08-19T04:45:17.717Z,3.25
2022-08-19T04:48:27.779Z,2.55
2022-08-19T04:51:32.122Z,2.67
2022-08-19T04:54:38.625Z,2.90
2022-08-19T04:57:41.486Z,2.40
2022-08-19T05:00:43.362Z,2.33
2022-08-19T05:03:45.198Z,2.85
2022-08-19T05:06:48.688Z,2.60
2022-08-19T05:09:57.883Z,2.88
2022-08-19T05:13:00.782Z,2.78
2022-08-19T05:16:02.633Z,2.67
2022-08-19T05:19:23.027Z,2.95
2022-08-19T05:22:35.614Z,2.50
2022-08-19T05:25:41.003Z,2.90
2022-08-19T05:28:43.441Z,2.97
2022-08-19T05:31:45.777Z,2.55
2022-08-19T05:34:47.532Z,3.38
2022-08-19T05:37:49.349Z,2.92
2022-08-19T05:43:59.685Z,2.90
2022-08-19T05:47:05.377Z,3.13
2022-08-19T05:50:07.524Z,2.67
2022-08-19T05:53:09.877Z,2.80
2022-08-19T05:56:16.883Z,3.33
2022-08-19T05:59:20.313Z,2.45
2022-08-19T06:02:22.668Z,2.63
2022-08-19T06:05:24.493Z,2.47
2022-08-19T06:08:34.438Z,2.70
2022-08-19T06:11:47.393Z,2.53
2022-08-19T06:15:00.547Z,3.05
2022-08-19T06:18:03.585Z,2.70
2022-08-19T06:21:05.541Z,2.45
2022-08-19T06:24:10.137Z,2.80
2022-08-19T06:27:11.887Z,2.63
2022-08-19T06:30:14.417Z,2.60
2022-08-19T06:33:16.165Z,3.20
2022-08-19T06:36:34.733Z,3.70
2022-08-19T06:39:39.654Z,3.15
2022-08-19T06:42:44.410Z,3.20
2022-08-19T06:45:57.056Z,3.25
2022-08-19T06:49:01.274Z,2.67
2022-08-19T06:52:04.857Z,3.03
2022-08-19T06:55:07.591Z,3.15
2022-08-19T06:58:10.223Z,2.92
2022-08-19T07:01:12.019Z,2.85
2022-08-19T07:04:16.546Z,2.83
2022-08-19T07:07:20.962Z,3.42
2022-08-19T07:10:23.421Z,2.70
2022-08-19T07:13:37.331Z,2.63
2022-08-19T07:16:42.510Z,3.00
2022-08-19T07:19:44.944Z,3.00
2022-08-19T07:22:49.161Z,3.13
2022-08-19T07:25:52.978Z,3.22
2022-08-19T07:28:56.502Z,2.88
2022-08-19T07:31:59.976Z,3.55
2022-08-19T07:35:04.283Z,2.58
2022-08-19T07:38:06.101Z,2.80
2022-08-19T07:41:10.298Z,3.03
2022-08-19T07:44:13.603Z,3.17
2022-08-19T07:47:48.935Z,2.97
2022-08-19T07:50:38.623Z,2.92
2022-08-19T07:53:40.458Z,2.70
2022-08-19T07:56:42.373Z,3.00
2022-08-19T07:59:44.166Z,2.90
2022-08-19T08:02:45.951Z,3.03
2022-08-19T08:06:07.848Z,3.10
2022-08-19T08:09:12.478Z,3.13
2022-08-19T08:12:33.500Z,3.13
2022-08-19T08:15:42.187Z,3.10
2022-08-19T08:18:50.735Z,2.60
2022-08-19T08:21:57.687Z,2.90
2022-08-19T08:25:10.442Z,3.28
2022-08-19T08:28:17.520Z,2.72
2022-08-19T08:31:20.613Z,3.20
2022-08-19T08:34:23.099Z,2.65
2022-08-19T08:37:24.915Z,2.67
2022-08-19T08:40:42.720Z,2.50
2022-08-19T08:43:47.331Z,3.25
2022-08-19T08:47:03.042Z,2.70
2022-08-19T08:50:16.109Z,2.42
2022-08-19T08:53:29.659Z,2.65
2022-08-19T08:56:34.085Z,3.00
2022-08-19T08:59:40.020Z,2.63
2022-08-19T09:02:41.835Z,2.78
2022-08-19T09:05:51.820Z,3.00
2022-08-19T09:09:11.881Z,2.95
2022-08-19T09:12:52.251Z,2.70
2022-08-19T09:16:02.383Z,2.67
2022-08-19T09:19:07.681Z,2.80
2022-08-19T09:22:10.666Z,2.83
2022-08-19T09:25:17.423Z,2.85
2022-08-19T09:28:27.234Z,2.72
2022-08-19T09:31:30.939Z,2.88
2022-08-19T09:34:38.107Z,2.88
2022-08-19T09:37:45.855Z,3.00
2022-08-19T09:40:47.639Z,2.97
2022-08-19T09:43:54.416Z,2.70
2022-08-19T09:46:57.169Z,3.30
2022-08-19T09:49:58.954Z,2.85
2022-08-19T09:53:01.205Z,2.53
2022-08-19T09:56:05.068Z,2.70
2022-08-19T09:59:06.984Z,2.80
2022-08-19T10:02:10.895Z,2.95
2022-08-19T10:05:31.561Z,2.83
2022-08-19T10:08:36.740Z,2.65
2022-08-19T10:11:49.882Z,2.72
2022-08-19T10:14:56.742Z,2.72
2022-08-19T10:18:00.698Z,2.92
2022-08-19T10:21:09.622Z,2.45
2022-08-19T10:24:13.611Z,2.60
2022-08-19T10:27:15.596Z,2.70
2022-08-19T10:30:18.888Z,2.92
2022-08-19T10:33:38.857Z,2.80
2022-08-19T10:36:53.799Z,3.35
2022-08-19T10:39:58.032Z,2.70
2022-08-19T10:42:59.863Z,3.05
2022-08-19T10:46:01.641Z,2.90
2022-08-19T10:49:05.088Z,2.88
2022-08-19T10:52:32.210Z,2.72
2022-08-19T10:55:54.507Z,2.45
2022-08-19T10:58:57.616Z,2.60
2022-08-19T11:02:04.702Z,2.65
2022-08-19T11:05:12.485Z,2.67
2022-08-19T11:08:22.492Z,2.53
2022-08-19T11:11:25.429Z,2.70
2022-08-19T11:14:27.224Z,2.45
2022-08-19T11:17:34.181Z,2.65
2022-08-19T11:20:35.933Z,2.40
2022-08-19T11:23:37.952Z,2.58
2022-08-19T11:26:42.276Z,2.47
2022-08-19T11:29:44.114Z,2.70
2022-08-19T11:32:49.372Z,2.60
2022-08-19T11:35:51.478Z,2.67
2022-08-19T11:38:53.602Z,2.97
2022-08-19T11:41:56.069Z,2.88
2022-08-19T11:44:57.974Z,2.60
2022-08-19T11:47:59.786Z,2.78
2022-08-19T11:51:07.131Z,2.53
2022-08-19T11:57:10.871Z,2.67
2022-08-19T12:00:14.146Z,2.50
2022-08-19T12:03:16.002Z,2.58
2022-08-19T12:06:26.506Z,2.50
2022-08-19T12:09:28.377Z,2.50
2022-08-19T12:12:32.901Z,2.40
2022-08-19T12:15:38.871Z,2.47
2022-08-19T12:18:43.784Z,2.40
2022-08-19T12:21:45.594Z,2.58
2022-08-19T12:24:47.779Z,2.30
2022-08-19T12:27:57.286Z,2.25
2022-08-19T12:30:59.719Z,2.47
2022-08-19T12:34:02.395Z,2.47
2022-08-19T12:37:06.454Z,2.90
2022-08-19T12:40:09.421Z,2.70
2022-08-19T12:43:12.524Z,2.60
2022-08-19T12:46:15.116Z,2.47
2022-08-19T12:49:52.739Z,2.45
2022-08-19T12:52:43.081Z,2.03
2022-08-19T12:55:44.895Z,2.50
2022-08-19T12:58:48.929Z,2.25
2022-08-19T13:01:54.681Z,2.40
2022-08-19T13:04:56.585Z,2.50
2022-08-19T13:08:00.629Z,2.30
2022-08-19T13:11:12.710Z,2.60
2022-08-19T13:14:14.617Z,2.80
2022-08-19T13:17:16.720Z,2.65
2022-08-19T13:20:21.099Z,2.33
2022-08-19T13:23:22.898Z,2.40
2022-08-19T13:26:24.783Z,2.55
2022-08-19T13:29:45.041Z,2.17
2022-08-19T13:33:05.435Z,2.50
2022-08-19T13:36:08.674Z,2.60
2022-08-19T13:39:10.983Z,2.55
2022-08-19T13:42:14.470Z,2.30
2022-08-19T13:45:18.854Z,2.28
2022-08-19T13:48:20.992Z,2.97
2022-08-19T13:51:23.540Z,2.10
2022-08-19T13:54:25.766Z,1.95
2022-08-19T13:57:27.538Z,2.50
2022-08-19T14:00:35.562Z,2.40
2022-08-19T14:03:38.359Z,2.60
2022-08-19T14:06:40.132Z,2.25
2022-08-19T14:09:42.926Z,2.67
2022-08-19T14:12:48.571Z,2.38
2022-08-19T14:15:51.565Z,2.53
2022-08-19T14:18:54.433Z,2.33
2022-08-19T14:21:58.479Z,2.65
2022-08-19T14:25:00.402Z,2.20
2022-08-19T14:28:02.870Z,2.42
2022-08-19T14:31:04.733Z,2.70
2022-08-19T14:34:06.527Z,2.25
2022-08-19T14:37:10.317Z,2.28
2022-08-19T14:40:21.466Z,2.25
2022-08-19T14:43:23.657Z,2.50
2022-08-19T14:46:28.260Z,2.30
2022-08-19T14:49:35.327Z,2.30
2022-08-19T14:52:49.498Z,2.17
2022-08-19T14:55:52.074Z,2.30
2022-08-19T14:58:54.460Z,2.35
2022-08-19T15:01:56.419Z,2.80
2022-08-19T15:04:59.163Z,2.50
2022-08-19T15:08:05.066Z,2.22
2022-08-19T15:11:16.632Z,2.38
2022-08-19T15:14:18.433Z,2.20
2022-08-19T15:17:20.251Z,2.63
2022-08-19T15:20:23.721Z,2.42
2022-08-19T15:23:26.154Z,2.25
2022-08-19T15:26:33.248Z,2.28
2022-08-19T15:29:36.333Z,2.08
2022-08-19T15:32:39.735Z,2.28
2022-08-19T15:35:42.946Z,2.05
2022-08-19T15:38:46.206Z,2.42
2022-08-19T15:41:48.056Z,2.17
2022-08-19T15:44:49.998Z,2.25
2022-08-19T15:47:52.298Z,2.22
2022-08-19T15:50:54.102Z,2.47
2022-08-19T15:53:57.087Z,2.47
2022-08-19T15:57:17.697Z,2.40
2022-08-19T16:00:38.262Z,2.33
2022-08-19T16:03:58.623Z,2.13
2022-08-19T16:07:03.571Z,2.28
2022-08-19T16:10:27.089Z,2.45
2022-08-19T16:13:29.047Z,2.25
2022-08-19T16:16:33.627Z,2.97
2022-08-19T16:19:35.907Z,3.10
2022-08-19T16:22:40.176Z,3.00
2022-08-19T16:25:42.093Z,2.72
2022-08-19T16:28:44.394Z,3.30
2022-08-19T16:31:46.851Z,2.90
2022-08-19T16:34:49.591Z,3.53
2022-08-19T16:37:51.416Z,3.10
2022-08-19T16:40:54.535Z,3.08
2022-08-19T16:43:56.491Z,2.85
2022-08-19T16:47:00.024Z,2.55
2022-08-19T16:50:01.943Z,2.40
2022-08-19T16:53:06.814Z,2.90
2022-08-19T16:56:09.742Z,3.28
2022-08-19T16:59:13.672Z,2.25
2022-08-19T17:02:19.743Z,3.13
2022-08-19T17:05:21.659Z,2.75
2022-08-19T17:08:28.778Z,2.75
2022-08-19T17:11:34.101Z,2.78
2022-08-19T17:14:35.932Z,3.42
2022-08-19T17:17:37.808Z,3.40
2022-08-19T17:20:41.400Z,2.92
2022-08-19T17:23:44.248Z,2.67
2022-08-19T17:26:46.152Z,2.90
2022-08-19T17:29:48.139Z,2.35
2022-08-19T17:32:50.215Z,2.80
2022-08-19T17:35:52.028Z,2.75
2022-08-19T17:38:55.635Z,2.97
2022-08-19T17:41:57.534Z,2.70
2022-08-19T17:45:05.941Z,3.00
2022-08-19T17:48:08.643Z,2.80
2022-08-19T17:51:33.235Z,2.47
2022-08-19T17:54:35.011Z,3.35
2022-08-19T17:57:40.047Z,2.67
2022-08-19T18:00:53.332Z,2.42
2022-08-19T18:03:56.002Z,2.40
2022-08-19T18:06:59.943Z,2.88
2022-08-19T18:10:02.148Z,2.40
2022-08-19T18:13:17.200Z,2.83
2022-08-19T18:16:22.016Z,2.53
2022-08-19T18:19:25.214Z,2.50
2022-08-19T18:22:38.761Z,2.47
2022-08-19T18:25:43.643Z,2.60
2022-08-19T18:28:49.759Z,2.20
2022-08-19T18:31:51.815Z,1.80
2022-08-19T18:34:54.597Z,2.30
2022-08-19T18:37:58.969Z,2.47
2022-08-19T18:41:19.160Z,2.67
2022-08-19T18:44:39.735Z,2.25
2022-08-19T18:47:59.978Z,2.13
2022-08-19T18:51:02.571Z,2.50
2022-08-19T18:54:04.418Z,2.30
2022-08-19T18:57:06.425Z,2.05
2022-08-19T19:00:09.910Z,2.03
2022-08-19T19:03:11.697Z,2.47
2022-08-19T19:06:27.745Z,2.30
2022-08-19T19:09:29.621Z,2.15
2022-08-19T19:12:34.404Z,2.20
2022-08-19T19:15:36.966Z,2.10
2022-08-19T19:18:39.091Z,1.98
2022-08-19T19:21:46.911Z,2.15
2022-08-19T19:24:49.431Z,1.67
2022-08-19T19:27:51.265Z,1.52
2022-08-19T19:30:57.498Z,2.15
2022-08-19T19:34:00.420Z,2.00
2022-08-19T19:37:02.403Z,2.08
2022-08-19T19:40:04.679Z,1.60
2022-08-19T19:43:06.569Z,2.03
2022-08-19T19:46:08.663Z,2.25
2022-08-19T19:49:11.161Z,2.67
2022-08-19T19:52:13.732Z,1.92
2022-08-19T19:55:20.020Z,2.13
2022-08-19T19:58:22.757Z,1.80
2022-08-19T20:01:31.058Z,1.75
2022-08-19T20:04:32.877Z,2.08
2022-08-19T20:07:53.053Z,1.48
2022-08-19T20:10:57.821Z,1.70
2022-08-19T20:14:01.688Z,1.60
2022-08-19T20:17:04.457Z,1.92
2022-08-19T20:20:06.551Z,1.73
2022-08-19T20:23:08.495Z,1.45
2022-08-19T20:26:16.451Z,1.85
2022-08-19T20:29:39.368Z,2.10
2022-08-19T20:32:43.238Z,1.60
2022-08-19T20:35:46.155Z,1.55
2022-08-19T20:38:47.923Z,1.55
2022-08-19T20:41:49.796Z,1.38
2022-08-19T20:44:52.158Z,1.70
2022-08-19T20:47:54.209Z,1.73
2022-08-19T20:50:57.347Z,1.60
2022-08-19T20:53:59.452Z,1.40
2022-08-19T20:57:03.554Z,1.70
2022-08-19T21:00:11.230Z,1.80
2022-08-19T21:03:17.878Z,1.63
2022-08-19T21:06:20.427Z,1.52
2022-08-19T21:09:24.991Z,1.50
2022-08-19T21:12:27.015Z,1.98
2022-08-19T21:15:28.836Z,1.42
2022-08-19T21:18:31.452Z,1.58
2022-08-19T21:21:33.338Z,1.77
2022-08-19T21:24:35.450Z,1.50
2022-08-19T21:27:37.568Z,1.63
2022-08-19T21:30:41.317Z,1.95
2022-08-19T21:33:43.497Z,1.58
2022-08-19T21:36:45.273Z,1.65
2022-08-19T21:39:47.156Z,1.55
2022-08-19T21:42:51.691Z,1.48
2022-08-19T21:45:53.511Z,1.70
2022-08-19T21:48:55.346Z,1.60
2022-08-19T21:51:57.991Z,1.52
2022-08-19T21:54:59.934Z,1.23
2022-08-19T21:58:01.814Z,1.38
2022-08-19T22:01:07.636Z,1.20
2022-08-19T22:04:09.858Z,1.23
2022-08-19T22:07:14.176Z,1.42
2022-08-19T22:10:16.015Z,1.20
2022-08-19T22:13:18.506Z,1.42
2022-08-19T22:16:21.402Z,1.45
2022-08-19T22:19:23.298Z,1.40
2022-08-19T22:22:28.367Z,1.30
2022-08-19T22:25:40.350Z,1.50
2022-08-19T22:28:43.204Z,1.38
2022-08-19T22:31:45.134Z,1.58
2022-08-19T22:34:58.634Z,1.60
2022-08-19T22:38:00.789Z,1.48
2022-08-19T22:41:03.283Z,1.60
2022-08-19T22:44:05.168Z,1.20
2022-08-19T22:47:07.058Z,1.20
2022-08-19T22:50:13.915Z,1.50
2022-08-19T22:53:16.759Z,1.70
2022-08-19T22:56:20.168Z,1.13
2022-08-19T22:59:22.349Z,1.10
2022-08-19T23:02:31.783Z,1.23
2022-08-19T23:05:33.561Z,1.13
2022-08-19T23:08:41.651Z,1.08
2022-08-19T23:11:43.447Z,1.30
2022-08-19T23:14:46.286Z,1.20
2022-08-19T23:17:48.172Z,1.00
2022-08-19T23:20:50.320Z,1.10
2022-08-19T23:23:53.450Z,1.10
2022-08-19T23:27:13.664Z,1.10
2022-08-19T23:30:27.781Z,1.10
2022-08-19T23:33:46.867Z,1.40
2022-08-19T23:36:53.454Z,0.93
2022-08-19T23:39:55.248Z,1.08
2022-08-19T23:42:58.277Z,1.25
2022-08-19T23:46:01.627Z,1.20
2022-08-19T23:49:08.405Z,1.33
2022-08-19T23:52:10.222Z,1.40
2022-08-19T23:55:12.557Z,0.85
2022-08-19T23:58:15.772Z,1.30
